Val-d'Or Airport
CYVO : now visible

Airfield :











YOU CAN JOIN US ON...

 
LOGIN :

Register | Disclaimer

   EN    FR    IT 

 









Legend :    VFR   Marginal VFR   IFR   Intensive IFR   Very Intensive IFR
Visi :
Ceiling :
>= 8 km
>= 3000ft
5 to 8 km
1000 to 3000 ft
1500m to 5 km
500 to 1000 ft
800 to 1500m
200 to 500 ft
< 800m
< 200 ft
Symbols :   Thunderstorms  Fog  Heavy snow  Heavy precipitations  Wind > 20 kt






- Airport Elevation : 1107 ft
- IATA code : YVO


CYVO - Val-d'Or

CURRENT METAR :
  • 302000Z 15013G19KT 15SM BKN060 OVC080 13/11 A2993 RMK SC6AC2 INTMT -RA SLP148 DENSITY ALT 1200FT

EXPIRED METARs :
  • 301900Z 17016G22KT 15SM -RA SCT050 OVC075 13/11 A2998 RMK SC4AC4 PRESFR SLP166
  • 301800Z 18016KT 15SM -RA OVC080 17/09 A3001 RMK AC8 PRESRR SLP175 DENSITY ALT 1500FT
  • 301727Z 17020G26KT 15SM -RA BKN080 OVC110 18/07 A3000 RMK AC6AS2 SLP171 DENSITY ALT 1700FT

TAF TAF CYVO
Valid from the 30 at 18:00 until the 01 at 06:00 UTC


301740Z 3018/0106 15020G30KT P6SM BKN080 OVC120
FM301900 18018G28KT P6SM -RA OVC060
TEMPO 3019/0102 P6SM -SHRA BKN040
PROB30 3019/0102 VRB15G30KT 2SM TSRA BR BKN015CB OVC040
FM010200 20012KT P6SM BKN060
TEMPO 0102/0106 5SM -RA BR BKN020 OVC060 RMK NXT FCST BY 010000Z
CZUL FIR / North America



MET'MAP, your aeronautical weather chart ! - Copyright ORBIFLY December 2007 - Disclaimer

ORBIFLY MET'MAP TEAM :

Programming & Development : Alexandra Zaïnal
Original concept : Baudouin d'Aumeries
Technical & hardware support : Manuel Goepfert
Assistance : Marc-Olivier Méhu




SOURCES & CREDITS :

   NOAA       Earth
Advisory